BAW107 EGLL-OMDB
Flight info
| Callsign | BAW107 |
|---|---|
| Flight time | N/A |
| Altitude | 40000 |
| Route | MAXIT Y803 MID L612 BOGNA UL612 VEULE KOTAP KETEX KOTIS KUKOR UTUVA TITVA NOQAS OTROT RETNO KOLON RAPUR RATAP BTA MOULE XOPTA RIFFI PNZ MASOT BELIX SALUN N705 MMA P751 DASUM Y234 FYM M872 BDB Y214 RAPMA KUVSO KATIT PEKEM M628 RIGIL G783 ASPED Q308 KIPOK Q568 IMPED |
| Aircraft | A35K/H-V/N |
Departure
| Time | 2026-05-04 08:46 |
|---|---|
| Airport | London Heathrow Airport (EGLL) |
Arrival
| Time | N/A |
|---|---|
| Airport | Dubai International Airport (OMDB) |
| Time | Latitude | Longitude | Altitude | Speed | Heading |
|---|---|---|---|---|---|
| 2026-05-04 07:45 | 51.46980 | -0.48014 | 92 ft | 0 kts | 270° |
| 2026-05-04 08:31 | 51.46980 | -0.47973 | 92 ft | 4 kts | 270° |
| 2026-05-04 08:33 | 51.47030 | -0.47870 | 92 ft | 0 kts | 179° |
| 2026-05-04 08:35 | 51.47023 | -0.47870 | 93 ft | 2 kts | 179° |
| 2026-05-04 08:35 | 51.46990 | -0.47869 | 97 ft | 9 kts | 179° |
| 2026-05-04 08:37 | 51.46747 | -0.47354 | 96 ft | 14 kts | 90° |
| 2026-05-04 08:37 | 51.46747 | -0.47182 | 94 ft | 23 kts | 89° |
| 2026-05-04 08:37 | 51.46747 | -0.46979 | 96 ft | 10 kts | 92° |
| 2026-05-04 08:38 | 51.46749 | -0.46863 | 93 ft | 11 kts | 89° |
| 2026-05-04 08:38 | 51.46749 | -0.46710 | 92 ft | 15 kts | 90° |
| 2026-05-04 08:38 | 51.46750 | -0.46532 | 97 ft | 16 kts | 90° |
| 2026-05-04 08:40 | 51.46663 | -0.45363 | 92 ft | 22 kts | 90° |
| 2026-05-04 08:40 | 51.46664 | -0.45121 | 92 ft | 22 kts | 90° |
| 2026-05-04 08:40 | 51.46665 | -0.44869 | 92 ft | 23 kts | 89° |
| 2026-05-04 08:41 | 51.46666 | -0.44521 | 92 ft | 24 kts | 90° |
| 2026-05-04 08:41 | 51.46667 | -0.44343 | 94 ft | 24 kts | 90° |
| 2026-05-04 08:41 | 51.46667 | -0.44071 | 93 ft | 24 kts | 90° |
| 2026-05-04 08:41 | 51.46668 | -0.43807 | 93 ft | 20 kts | 89° |
| 2026-05-04 08:42 | 51.46655 | -0.43641 | 96 ft | 11 kts | 130° |
| 2026-05-04 08:42 | 51.46584 | -0.43606 | 92 ft | 11 kts | 175° |
| 2026-05-04 08:42 | 51.46513 | -0.43620 | 97 ft | 9 kts | 214° |
| 2026-05-04 08:42 | 51.46496 | -0.43708 | 93 ft | 9 kts | 269° |
| 2026-05-04 08:43 | 51.46496 | -0.43722 | 92 ft | 2 kts | 269° |
| 2026-05-04 08:43 | 51.46496 | -0.43752 | 92 ft | 4 kts | 269° |
| 2026-05-04 08:43 | 51.46494 | -0.43871 | 92 ft | 32 kts | 269° |
| 2026-05-04 08:43 | 51.46492 | -0.44582 | 94 ft | 94 kts | 270° |
| 2026-05-04 08:44 | 51.46488 | -0.45936 | 93 ft | 147 kts | 270° |
| 2026-05-04 08:44 | 51.46490 | -0.47447 | 245 ft | 172 kts | 271° |
| 2026-05-04 08:46 | 51.42649 | -0.61455 | 3042 ft | 258 kts | 202° |
| 2026-05-04 08:46 | 51.40862 | -0.61796 | 3603 ft | 263 kts | 168° |
| 2026-05-04 08:46 | 51.39137 | -0.60825 | 4259 ft | 264 kts | 158° |
| 2026-05-04 08:46 | 51.37404 | -0.59806 | 4937 ft | 266 kts | 160° |
| 2026-05-04 08:47 | 51.35658 | -0.58823 | 5609 ft | 267 kts | 161° |
| 2026-05-04 08:47 | 51.33895 | -0.57843 | 6257 ft | 269 kts | 161° |
| 2026-05-04 08:47 | 51.32120 | -0.56863 | 6870 ft | 272 kts | 161° |
| 2026-05-04 08:47 | 51.30307 | -0.55903 | 7477 ft | 275 kts | 165° |
| 2026-05-04 08:48 | 51.28399 | -0.55588 | 8084 ft | 277 kts | 183° |
| 2026-05-04 08:48 | 51.26472 | -0.55874 | 8710 ft | 279 kts | 187° |
| 2026-05-04 08:48 | 51.24538 | -0.56278 | 9317 ft | 282 kts | 189° |
| 2026-05-04 08:48 | 51.22630 | -0.56820 | 9916 ft | 283 kts | 191° |
| 2026-05-04 08:49 | 51.20661 | -0.57460 | 10407 ft | 291 kts | 192° |
| 2026-05-04 08:50 | 51.07224 | -0.61311 | 12485 ft | 355 kts | 178° |
| 2026-05-04 08:50 | 51.04763 | -0.60740 | 12965 ft | 360 kts | 166° |
| 2026-05-04 08:51 | 51.02423 | -0.59268 | 13437 ft | 366 kts | 154° |
| 2026-05-04 08:51 | 51.00202 | -0.57233 | 13935 ft | 370 kts | 149° |
| 2026-05-04 08:51 | 50.98048 | -0.54985 | 14404 ft | 373 kts | 147° |
| 2026-05-04 08:51 | 50.95901 | -0.52622 | 14896 ft | 376 kts | 147° |
| 2026-05-04 08:52 | 50.93752 | -0.50232 | 15374 ft | 379 kts | 147° |
| 2026-05-04 08:52 | 50.91583 | -0.47843 | 15855 ft | 381 kts | 147° |
| 2026-05-04 08:52 | 50.89387 | -0.45457 | 16318 ft | 384 kts | 148° |
| 2026-05-04 08:52 | 50.87174 | -0.43083 | 16773 ft | 386 kts | 148° |
| 2026-05-04 08:53 | 50.84933 | -0.40700 | 17238 ft | 389 kts | 148° |
| 2026-05-04 08:54 | 50.68855 | -0.23757 | 20192 ft | 405 kts | 148° |
| 2026-05-04 08:55 | 50.66505 | -0.21290 | 20592 ft | 407 kts | 148° |
| 2026-05-04 08:55 | 50.64144 | -0.18811 | 20981 ft | 409 kts | 149° |
| 2026-05-04 08:55 | 50.61771 | -0.16324 | 21363 ft | 411 kts | 149° |
| 2026-05-04 08:55 | 50.59378 | -0.13822 | 21728 ft | 413 kts | 149° |
| 2026-05-04 08:57 | 50.42300 | 0.03948 | 24272 ft | 426 kts | 151° |
| 2026-05-04 09:01 | 50.07022 | 0.40252 | 29035 ft | 445 kts | 152° |
| 2026-05-04 09:01 | 50.04433 | 0.42900 | 29365 ft | 446 kts | 152° |
| 2026-05-04 09:01 | 50.01838 | 0.45551 | 29703 ft | 447 kts | 152° |
| 2026-05-04 09:01 | 49.99230 | 0.48211 | 29996 ft | 449 kts | 152° |
| 2026-05-04 09:02 | 49.96616 | 0.50874 | 30303 ft | 450 kts | 152° |
| 2026-05-04 09:02 | 49.93989 | 0.53548 | 30610 ft | 452 kts | 152° |
| 2026-05-04 09:02 | 49.91383 | 0.56195 | 30862 ft | 454 kts | 152° |
| 2026-05-04 09:02 | 49.88703 | 0.58913 | 31123 ft | 456 kts | 152° |
| 2026-05-04 09:03 | 49.86049 | 0.61606 | 31371 ft | 458 kts | 152° |
| 2026-05-04 09:03 | 49.83422 | 0.64378 | 31648 ft | 459 kts | 150° |
| 2026-05-04 09:03 | 49.80820 | 0.67239 | 32007 ft | 459 kts | 149° |
| 2026-05-04 09:03 | 49.78230 | 0.70135 | 32301 ft | 459 kts | 149° |
| 2026-05-04 09:04 | 49.75647 | 0.73031 | 32638 ft | 458 kts | 149° |
| 2026-05-04 09:04 | 49.73071 | 0.75912 | 32972 ft | 457 kts | 149° |
| 2026-05-04 09:04 | 49.70518 | 0.78750 | 33294 ft | 456 kts | 149° |
| 2026-05-04 09:04 | 49.67910 | 0.81635 | 33565 ft | 456 kts | 149° |
| 2026-05-04 09:05 | 49.65360 | 0.84444 | 33873 ft | 455 kts | 149° |
| 2026-05-04 09:05 | 49.62783 | 0.87277 | 34161 ft | 454 kts | 149° |
| 2026-05-04 09:05 | 49.60179 | 0.90132 | 34422 ft | 455 kts | 149° |
| 2026-05-04 09:05 | 49.57624 | 0.92928 | 34616 ft | 456 kts | 149° |
| 2026-05-04 09:06 | 49.55045 | 0.95748 | 34846 ft | 457 kts | 149° |
| 2026-05-04 09:07 | 49.36811 | 1.15592 | 34997 ft | 459 kts | 149° |
| 2026-05-04 09:08 | 49.34206 | 1.18414 | 34984 ft | 458 kts | 149° |
| 2026-05-04 09:08 | 49.28990 | 1.24052 | 34992 ft | 458 kts | 150° |
| 2026-05-04 09:09 | 49.23784 | 1.29660 | 34999 ft | 458 kts | 150° |
| 2026-05-04 09:09 | 49.18565 | 1.35269 | 34985 ft | 458 kts | 150° |
| 2026-05-04 09:10 | 49.13353 | 1.40859 | 34984 ft | 458 kts | 150° |
| 2026-05-04 09:10 | 49.08144 | 1.46429 | 34988 ft | 458 kts | 150° |
| 2026-05-04 09:11 | 49.02925 | 1.51995 | 35003 ft | 458 kts | 149° |
| 2026-05-04 09:11 | 48.97703 | 1.57550 | 34986 ft | 457 kts | 149° |
| 2026-05-04 09:12 | 48.92492 | 1.63079 | 34993 ft | 457 kts | 149° |
| 2026-05-04 09:14 | 48.71644 | 1.85054 | 34986 ft | 455 kts | 149° |
| 2026-05-04 09:14 | 48.66444 | 1.90500 | 34999 ft | 455 kts | 149° |
| 2026-05-04 09:15 | 48.61239 | 1.95939 | 35001 ft | 455 kts | 150° |
| 2026-05-04 09:15 | 48.56068 | 2.01326 | 34985 ft | 454 kts | 150° |
| 2026-05-04 09:17 | 48.32674 | 2.25532 | 35003 ft | 453 kts | 150° |
| 2026-05-04 09:18 | 48.27233 | 2.30118 | 34987 ft | 445 kts | 162° |
| 2026-05-04 09:18 | 48.21345 | 2.32878 | 34986 ft | 443 kts | 168° |
| 2026-05-04 09:19 | 48.15388 | 2.35234 | 34984 ft | 443 kts | 168° |
| 2026-05-04 09:19 | 48.09458 | 2.37785 | 34987 ft | 444 kts | 165° |
| 2026-05-04 09:20 | 48.03604 | 2.40716 | 34999 ft | 444 kts | 165° |
| 2026-05-04 09:20 | 47.97753 | 2.43694 | 34997 ft | 444 kts | 165° |
| 2026-05-04 09:21 | 47.91883 | 2.46634 | 34985 ft | 445 kts | 165° |
| 2026-05-04 09:21 | 47.85999 | 2.49543 | 34987 ft | 445 kts | 165° |
| 2026-05-04 09:22 | 47.80119 | 2.52439 | 34995 ft | 445 kts | 165° |
| 2026-05-04 09:22 | 47.74243 | 2.55328 | 34987 ft | 445 kts | 165° |
| 2026-05-04 09:23 | 47.68343 | 2.58224 | 34985 ft | 446 kts | 165° |
| 2026-05-04 09:23 | 47.62451 | 2.61108 | 34986 ft | 446 kts | 165° |
| 2026-05-04 09:25 | 47.38904 | 2.72570 | 35005 ft | 446 kts | 165° |
| 2026-05-04 09:26 | 47.33004 | 2.75423 | 34984 ft | 446 kts | 165° |
| 2026-05-04 09:26 | 47.27097 | 2.78272 | 34985 ft | 447 kts | 165° |
| 2026-05-04 09:27 | 47.21185 | 2.81118 | 34987 ft | 447 kts | 165° |
| 2026-05-04 09:27 | 47.16229 | 2.83499 | 34986 ft | 448 kts | 165° |
| 2026-05-04 09:28 | 47.10308 | 2.86338 | 34999 ft | 448 kts | 165° |
| 2026-05-04 09:28 | 47.04415 | 2.89157 | 35004 ft | 448 kts | 166° |
| 2026-05-04 09:29 | 46.98482 | 2.91987 | 34986 ft | 448 kts | 166° |
| 2026-05-04 09:29 | 46.92554 | 2.94809 | 34985 ft | 448 kts | 165° |
| 2026-05-04 09:30 | 46.86576 | 2.97647 | 34983 ft | 449 kts | 165° |
| 2026-05-04 09:30 | 46.80670 | 3.00445 | 34986 ft | 449 kts | 166° |
| 2026-05-04 09:31 | 46.74736 | 3.03250 | 34986 ft | 449 kts | 166° |
| 2026-05-04 09:31 | 46.68780 | 3.06058 | 34984 ft | 449 kts | 166° |
| 2026-05-04 09:32 | 46.62830 | 3.08857 | 34984 ft | 449 kts | 166° |
| 2026-05-04 09:34 | 46.39179 | 3.20977 | 34991 ft | 451 kts | 163° |
| 2026-05-04 09:34 | 46.33301 | 3.24154 | 35000 ft | 451 kts | 163° |
| 2026-05-04 09:35 | 46.27408 | 3.27313 | 34987 ft | 451 kts | 163° |
| 2026-05-04 09:35 | 46.21517 | 3.30457 | 34984 ft | 452 kts | 163° |
| 2026-05-04 09:37 | 46.00870 | 3.41426 | 35388 ft | 452 kts | 163° |
| 2026-05-04 09:37 | 45.97919 | 3.42988 | 35664 ft | 451 kts | 163° |
| 2026-05-04 09:38 | 45.94967 | 3.44549 | 35830 ft | 453 kts | 163° |
| 2026-05-04 09:38 | 45.92029 | 3.46099 | 36015 ft | 454 kts | 163° |
| 2026-05-04 09:38 | 45.89076 | 3.47662 | 36239 ft | 455 kts | 163° |
| 2026-05-04 09:38 | 45.86187 | 3.49521 | 36451 ft | 459 kts | 156° |
| 2026-05-04 09:39 | 45.83403 | 3.51869 | 36629 ft | 462 kts | 153° |
| 2026-05-04 09:39 | 45.80698 | 3.54331 | 36836 ft | 463 kts | 152° |
| 2026-05-04 09:39 | 45.77989 | 3.56872 | 36983 ft | 464 kts | 151° |
| 2026-05-04 09:39 | 45.75314 | 3.59413 | 37002 ft | 461 kts | 151° |
| 2026-05-04 09:40 | 45.70002 | 3.64464 | 37002 ft | 456 kts | 151° |
| 2026-05-04 09:40 | 45.64713 | 3.69447 | 36999 ft | 455 kts | 151° |
| 2026-05-04 09:42 | 45.43676 | 3.89058 | 37019 ft | 457 kts | 152° |
| 2026-05-04 09:43 | 45.38424 | 3.94076 | 37020 ft | 460 kts | 147° |
| 2026-05-04 09:43 | 45.33885 | 4.00654 | 37019 ft | 470 kts | 133° |
| 2026-05-04 09:44 | 45.29968 | 4.08140 | 37019 ft | 474 kts | 130° |
| 2026-05-04 09:46 | 45.14484 | 4.38508 | 37103 ft | 477 kts | 131° |
| 2026-05-04 09:46 | 45.12523 | 4.42303 | 37258 ft | 477 kts | 131° |
| 2026-05-04 09:46 | 45.10539 | 4.46019 | 37436 ft | 476 kts | 134° |
| 2026-05-04 09:47 | 45.08416 | 4.49652 | 37634 ft | 474 kts | 135° |
| 2026-05-04 09:47 | 45.06247 | 4.53182 | 37760 ft | 475 kts | 136° |
| 2026-05-04 09:49 | 44.90976 | 4.77767 | 38701 ft | 478 kts | 136° |
| 2026-05-04 09:49 | 44.88789 | 4.81313 | 38792 ft | 479 kts | 136° |
| 2026-05-04 09:49 | 44.86604 | 4.84851 | 38902 ft | 479 kts | 136° |
| 2026-05-04 09:51 | 44.73415 | 5.06096 | 39045 ft | 480 kts | 136° |
| 2026-05-04 09:51 | 44.69013 | 5.13147 | 39044 ft | 481 kts | 136° |
| 2026-05-04 09:52 | 44.64582 | 5.20227 | 39052 ft | 481 kts | 136° |
| 2026-05-04 09:52 | 44.60156 | 5.27285 | 39056 ft | 482 kts | 136° |
| 2026-05-04 09:53 | 44.55726 | 5.34333 | 39053 ft | 482 kts | 136° |
| 2026-05-04 09:53 | 44.51295 | 5.41361 | 39051 ft | 482 kts | 136° |
| 2026-05-04 09:54 | 44.46842 | 5.48404 | 39056 ft | 482 kts | 136° |
| 2026-05-04 09:54 | 44.42386 | 5.55439 | 39054 ft | 483 kts | 136° |
| 2026-05-04 09:55 | 44.38005 | 5.62574 | 39055 ft | 487 kts | 130° |
| 2026-05-04 09:55 | 44.34100 | 5.70326 | 39049 ft | 488 kts | 129° |
| 2026-05-04 09:56 | 44.30286 | 5.78184 | 39046 ft | 489 kts | 128° |
| 2026-05-04 09:56 | 44.26499 | 5.86012 | 39044 ft | 490 kts | 128° |
| 2026-05-04 09:57 | 44.22668 | 5.93880 | 39046 ft | 490 kts | 128° |
| 2026-05-04 09:57 | 44.18847 | 6.01684 | 39061 ft | 490 kts | 128° |
| 2026-05-04 09:58 | 44.15005 | 6.09508 | 39059 ft | 490 kts | 129° |
| 2026-05-04 09:58 | 44.11170 | 6.17298 | 39067 ft | 490 kts | 129° |
| 2026-05-04 10:00 | 43.95715 | 6.48488 | 39092 ft | 492 kts | 129° |
| 2026-05-04 10:04 | 43.68324 | 7.03436 | 39103 ft | 500 kts | 126° |
| 2026-05-04 10:04 | 43.64561 | 7.11556 | 39100 ft | 500 kts | 126° |
| 2026-05-04 10:05 | 43.60797 | 7.19631 | 39101 ft | 501 kts | 127° |
| 2026-05-04 10:05 | 43.57000 | 7.27707 | 39100 ft | 501 kts | 127° |
| 2026-05-04 10:06 | 43.53195 | 7.35755 | 39100 ft | 502 kts | 127° |
| 2026-05-04 10:06 | 43.49383 | 7.43794 | 39101 ft | 501 kts | 127° |
| 2026-05-04 10:08 | 43.35990 | 7.71882 | 39110 ft | 502 kts | 127° |
| 2026-05-04 10:08 | 43.32144 | 7.79899 | 39110 ft | 502 kts | 127° |
| 2026-05-04 10:09 | 43.28293 | 7.87903 | 39110 ft | 503 kts | 127° |
| 2026-05-04 10:09 | 43.24430 | 7.95910 | 39110 ft | 503 kts | 127° |
| 2026-05-04 10:10 | 43.20582 | 8.03864 | 39110 ft | 504 kts | 127° |
| 2026-05-04 10:10 | 43.16678 | 8.11913 | 39109 ft | 504 kts | 127° |
| 2026-05-04 10:11 | 43.12794 | 8.19900 | 39118 ft | 505 kts | 127° |
| 2026-05-04 10:11 | 43.08890 | 8.27904 | 39110 ft | 507 kts | 127° |
| 2026-05-04 10:12 | 43.04935 | 8.35988 | 39108 ft | 513 kts | 127° |
| 2026-05-04 10:12 | 43.00968 | 8.44077 | 39101 ft | 519 kts | 127° |
| 2026-05-04 10:13 | 42.96933 | 8.52286 | 39099 ft | 522 kts | 127° |
| 2026-05-04 10:13 | 42.93523 | 8.59201 | 39091 ft | 525 kts | 127° |
| 2026-05-04 10:14 | 42.89491 | 8.67516 | 39090 ft | 528 kts | 123° |
| 2026-05-04 10:16 | 42.75387 | 9.02752 | 39093 ft | 530 kts | 121° |
| 2026-05-04 10:16 | 42.71860 | 9.11554 | 39101 ft | 530 kts | 121° |
| 2026-05-04 10:17 | 42.68321 | 9.20361 | 39109 ft | 530 kts | 121° |
| 2026-05-04 10:19 | 42.58673 | 9.52395 | 39127 ft | 533 kts | 87° |
| 2026-05-04 10:19 | 42.59098 | 9.57448 | 39131 ft | 532 kts | 78° |
| 2026-05-04 10:19 | 42.60686 | 9.67263 | 39128 ft | 533 kts | 75° |
| 2026-05-04 10:20 | 42.62321 | 9.77057 | 39131 ft | 534 kts | 81° |
| 2026-05-04 10:20 | 42.62154 | 9.87041 | 39135 ft | 534 kts | 102° |
| 2026-05-04 10:21 | 42.61088 | 9.91859 | 39143 ft | 532 kts | 114° |
| 2026-05-04 10:21 | 42.59395 | 9.96297 | 39140 ft | 529 kts | 126° |
| 2026-05-04 10:21 | 42.55186 | 10.04484 | 39133 ft | 529 kts | 127° |
| 2026-05-04 10:22 | 42.48806 | 10.16724 | 39141 ft | 530 kts | 127° |
| 2026-05-04 10:23 | 42.44564 | 10.24910 | 39132 ft | 531 kts | 127° |
| 2026-05-04 10:25 | 42.27659 | 10.57568 | 39145 ft | 529 kts | 127° |
| 2026-05-04 10:25 | 42.23421 | 10.65697 | 39143 ft | 528 kts | 127° |
| 2026-05-04 10:26 | 42.19186 | 10.73797 | 39142 ft | 527 kts | 127° |
| 2026-05-04 10:26 | 42.14961 | 10.81863 | 39154 ft | 526 kts | 127° |
| 2026-05-04 10:27 | 42.10736 | 10.89903 | 39160 ft | 525 kts | 127° |
| 2026-05-04 10:27 | 42.06516 | 10.97911 | 39159 ft | 524 kts | 127° |
| 2026-05-04 10:28 | 42.02302 | 11.05885 | 39159 ft | 523 kts | 127° |
| 2026-05-04 10:28 | 41.98110 | 11.13797 | 39161 ft | 522 kts | 127° |
| 2026-05-04 10:29 | 41.93854 | 11.21810 | 39174 ft | 525 kts | 127° |
| 2026-05-04 10:29 | 41.89628 | 11.29748 | 39165 ft | 526 kts | 127° |
| 2026-05-04 10:30 | 41.85364 | 11.37735 | 39173 ft | 526 kts | 127° |
| 2026-05-04 10:30 | 41.81108 | 11.45687 | 39174 ft | 525 kts | 127° |
| 2026-05-04 10:31 | 41.76846 | 11.53629 | 39174 ft | 523 kts | 127° |